createdAt,value
2017-12-11T00:01:02.521Z,0.90
2017-12-11T00:03:28.659Z,1.00
2017-12-11T00:05:54.748Z,1.00
2017-12-11T00:08:20.866Z,1.00
2017-12-11T00:10:46.968Z,1.00
2017-12-11T01:14:49.774Z,1.20
2017-12-11T01:17:15.859Z,1.80
2017-12-11T01:19:41.953Z,1.90
2017-12-11T01:22:08.179Z,2.00
2017-12-11T01:24:34.296Z,2.10
2017-12-11T01:27:00.398Z,2.30
2017-12-11T01:29:26.539Z,2.20
2017-12-11T01:31:52.626Z,2.30
2017-12-11T01:34:18.729Z,2.40
2017-12-11T01:36:44.840Z,2.40
2017-12-11T01:39:10.959Z,2.50
2017-12-11T01:41:37.054Z,2.70
2017-12-11T01:44:03.193Z,2.60
2017-12-11T01:46:29.300Z,2.60
2017-12-11T09:12:39.100Z,2.80
2017-12-11T09:15:05.220Z,3.20
2017-12-11T13:34:00.263Z,3.60
2017-12-11T13:36:26.369Z,3.10
2017-12-11T13:38:52.919Z,3.10
2017-12-11T13:41:19.139Z,3.10
2017-12-11T13:43:45.909Z,3.10
2017-12-11T13:46:11.991Z,3.10
2017-12-11T13:48:38.123Z,3.10
2017-12-11T13:51:04.212Z,3.10
2017-12-11T13:53:30.303Z,3.10
2017-12-11T13:55:56.411Z,3.00
2017-12-11T13:58:23.242Z,3.00
2017-12-11T14:00:49.341Z,3.00
2017-12-11T14:03:15.499Z,3.10
2017-12-11T14:05:41.600Z,3.10
2017-12-11T14:08:07.681Z,3.10
2017-12-11T14:10:33.814Z,3.10
2017-12-11T14:12:59.934Z,3.00
2017-12-11T14:15:26.056Z,3.10
2017-12-11T14:17:52.195Z,3.10
2017-12-11T14:20:18.298Z,3.10
2017-12-11T14:22:45.137Z,3.10
2017-12-11T14:25:11.288Z,3.00
2017-12-11T14:27:37.401Z,3.10
2017-12-11T14:30:03.541Z,3.00
2017-12-11T14:32:29.719Z,3.00
2017-12-11T14:34:55.873Z,3.10
2017-12-11T14:37:21.986Z,3.10
2017-12-11T14:39:48.123Z,3.20
2017-12-11T14:42:15.131Z,3.20
2017-12-11T14:44:41.288Z,3.20
2017-12-11T14:47:07.409Z,3.20
2017-12-11T14:49:33.552Z,3.20
2017-12-11T14:51:59.701Z,3.20
2017-12-11T14:54:25.828Z,3.20
2017-12-11T14:56:51.958Z,3.20
2017-12-11T14:59:18.036Z,3.10
2017-12-11T15:01:44.957Z,3.10
2017-12-11T15:04:11.077Z,3.10
2017-12-11T15:06:37.174Z,3.20
2017-12-11T15:09:03.302Z,3.10
2017-12-11T15:11:29.449Z,3.10
2017-12-11T15:13:55.573Z,3.10
2017-12-11T15:16:22.039Z,3.00
2017-12-11T15:18:48.898Z,3.00
2017-12-11T15:21:15.777Z,3.00
2017-12-11T15:23:42.174Z,3.00
2017-12-11T15:26:08.274Z,3.10
2017-12-11T15:28:34.411Z,3.00
2017-12-11T15:31:00.677Z,3.00
2017-12-11T15:33:27.423Z,3.10
2017-12-11T15:35:53.550Z,3.10
2017-12-11T15:38:19.760Z,3.00
2017-12-11T15:40:46.624Z,3.10
2017-12-11T15:43:12.829Z,3.10
2017-12-11T15:45:38.978Z,3.10
2017-12-11T15:48:05.811Z,3.10
2017-12-11T15:50:31.941Z,3.10
2017-12-11T15:52:58.046Z,3.10
2017-12-11T15:55:24.278Z,3.10
2017-12-11T15:57:50.455Z,3.10
2017-12-11T16:00:16.546Z,3.10
2017-12-11T16:02:42.834Z,3.10
2017-12-11T16:05:09.966Z,3.10
2017-12-11T16:07:36.091Z,3.10
2017-12-11T16:10:02.248Z,3.00
2017-12-11T16:12:28.419Z,3.10
2017-12-11T16:14:54.612Z,3.10
2017-12-11T16:17:20.742Z,3.10
2017-12-11T16:19:46.834Z,3.10
2017-12-11T16:22:18.250Z,3.10
2017-12-11T16:24:44.417Z,3.10
2017-12-11T16:27:10.565Z,3.10
2017-12-11T16:29:36.688Z,3.10
2017-12-11T16:32:02.967Z,3.10
2017-12-11T16:34:29.138Z,3.10
2017-12-11T16:36:55.250Z,3.10
2017-12-11T16:39:22.217Z,3.10
2017-12-11T16:41:49.071Z,3.10
2017-12-11T16:44:16.025Z,3.20
2017-12-11T16:46:42.160Z,3.10
2017-12-11T16:49:08.321Z,3.20
2017-12-11T16:51:34.467Z,3.20
2017-12-11T16:54:00.665Z,3.30
2017-12-11T16:56:26.777Z,3.30
2017-12-11T16:58:52.898Z,3.30
2017-12-11T17:03:52.220Z,3.40
2017-12-11T17:06:18.393Z,3.50
2017-12-11T17:08:44.562Z,3.50
2017-12-11T17:11:25.906Z,3.60
2017-12-11T17:13:52.072Z,3.60
2017-12-11T17:16:18.283Z,3.60
2017-12-11T17:18:44.418Z,3.70
2017-12-11T17:21:14.541Z,3.70
2017-12-11T17:23:47.830Z,3.60
2017-12-11T17:26:14.227Z,3.70
2017-12-11T17:28:41.431Z,3.70
2017-12-11T17:31:08.311Z,3.80
2017-12-11T17:33:34.455Z,3.70
2017-12-11T17:36:00.702Z,3.90
